Accueil
METAR-TAF:

METAR-TAF

Aéroports :

Aéroport de Saint-Nazaire - Montoir

Saint-Nazaire, France

latitude: 47-19N, longitude: 002-10W, altitude: 3 m

Observation

Le bulletin a été fait il y a 37 minutes, à 16:30 UTC
Vent 11 kt de nord-est
Température 8°C
Humidité 57%
Pression 1026 hPa
Visibilité 10 km ou plus
Ciel couvert à une hauteur de 3700 ft

METAR: LFRZ 051630Z AUTO 05011KT 9999 OVC037 08/00 Q1026 NOSIG

Heure: 18:07 (17:07 UTC)

Prévision

Le bulletin a été fait il y a 6 heures et 7 minutes, à 11:00 UTC
Prévision valable du 05 à 12 UTC au 06 à 12 UTC
Vent 12 kt de nord-est
Visibilité 10 km ou plus
Nuages fragmentés à une hauteur de 3500 ft
Evoluant progressivement
du 05 à 18 UTC au 05 à 21 UTC
Visibilité 10 km ou plus
pas de nuages en-dessous de 1500 mètres et pas de cumulonimbus.

TAF: LFRZ 051100Z 0512/0612 04012KT 9999 BKN035 BECMG 0518/0521 CAVOK

Observations et prévisions météorologiques de plus de 4000 aéroports (messages METAR et TAF).

Les stations disponibles sont représentées par des disques jaunes et rouges sur la carte.

Passer la souris dessus pour voir le nom de la station.

Cliquer dessus pour voir les observations et prévisions météorologiques.

Pour changer de carte: cliquez sur les boutons verts avec une croix noire pour zoomer, sur le bouton vert avec un tiret pour effectuer un zoom arrière, ou sur les flèches vertes pour les cartes adjacentes.


METAR-TAF: